sensor_id;sensor_type;location;lat;lon;timestamp;P1;durP1;ratioP1;P2;durP2;ratioP2
75297;SDS011;63896;45.990;18.688;2023-03-23T00:00:37;14.85;;;8.85;;
75297;SDS011;63896;45.990;18.688;2023-03-23T00:03:39;15.90;;;8.57;;
75297;SDS011;63896;45.990;18.688;2023-03-23T00:06:42;16.10;;;8.82;;
75297;SDS011;63896;45.990;18.688;2023-03-23T00:09:49;16.70;;;8.65;;
75297;SDS011;63896;45.990;18.688;2023-03-23T00:12:55;19.48;;;8.40;;
75297;SDS011;63896;45.990;18.688;2023-03-23T00:15:58;17.15;;;8.68;;
75297;SDS011;63896;45.990;18.688;2023-03-23T00:19:02;15.63;;;8.93;;
75297;SDS011;63896;45.990;18.688;2023-03-23T00:22:08;14.88;;;7.82;;
75297;SDS011;63896;45.990;18.688;2023-03-23T00:25:10;14.30;;;8.05;;
75297;SDS011;63896;45.990;18.688;2023-03-23T00:28:11;12.80;;;7.80;;
75297;SDS011;63896;45.990;18.688;2023-03-23T00:31:14;15.60;;;8.13;;
75297;SDS011;63896;45.990;18.688;2023-03-23T00:34:17;13.10;;;7.83;;
75297;SDS011;63896;45.990;18.688;2023-03-23T00:37:20;17.73;;;8.55;;
75297;SDS011;63896;45.990;18.688;2023-03-23T00:40:22;17.38;;;8.07;;
75297;SDS011;63896;45.990;18.688;2023-03-23T00:43:24;17.13;;;8.07;;
75297;SDS011;63896;45.990;18.688;2023-03-23T00:46:26;13.82;;;8.07;;
75297;SDS011;63896;45.990;18.688;2023-03-23T00:49:29;15.37;;;7.80;;
75297;SDS011;63896;45.990;18.688;2023-03-23T00:52:31;15.77;;;7.38;;
75297;SDS011;63896;45.990;18.688;2023-03-23T00:55:32;16.55;;;7.22;;
75297;SDS011;63896;45.990;18.688;2023-03-23T00:58:35;13.27;;;7.35;;
75297;SDS011;63896;45.990;18.688;2023-03-23T01:01:38;14.03;;;7.60;;
75297;SDS011;63896;45.990;18.688;2023-03-23T01:04:40;13.87;;;7.50;;
75297;SDS011;63896;45.990;18.688;2023-03-23T01:07:46;13.05;;;7.60;;
75297;SDS011;63896;45.990;18.688;2023-03-23T01:10:48;19.48;;;9.32;;
75297;SDS011;63896;45.990;18.688;2023-03-23T01:13:51;21.13;;;10.45;;
75297;SDS011;63896;45.990;18.688;2023-03-23T01:16:55;22.07;;;10.83;;
75297;SDS011;63896;45.990;18.688;2023-03-23T01:19:56;23.23;;;10.23;;
75297;SDS011;63896;45.990;18.688;2023-03-23T01:22:59;20.58;;;11.00;;
75297;SDS011;63896;45.990;18.688;2023-03-23T01:26:07;25.60;;;10.60;;
75297;SDS011;63896;45.990;18.688;2023-03-23T01:29:13;23.13;;;11.05;;
75297;SDS011;63896;45.990;18.688;2023-03-23T01:32:15;21.87;;;10.63;;
75297;SDS011;63896;45.990;18.688;2023-03-23T01:35:17;20.00;;;11.03;;
75297;SDS011;63896;45.990;18.688;2023-03-23T01:38:20;23.52;;;10.50;;
75297;SDS011;63896;45.990;18.688;2023-03-23T01:41:23;21.40;;;10.85;;
75297;SDS011;63896;45.990;18.688;2023-03-23T01:47:40;18.00;;;10.20;;
75297;SDS011;63896;45.990;18.688;2023-03-23T01:50:45;18.97;;;10.77;;
75297;SDS011;63896;45.990;18.688;2023-03-23T01:53:58;22.60;;;11.15;;
75297;SDS011;63896;45.990;18.688;2023-03-23T01:57:03;21.25;;;10.68;;
75297;SDS011;63896;45.990;18.688;2023-03-23T02:00:09;19.77;;;10.70;;
75297;SDS011;63896;45.990;18.688;2023-03-23T02:03:19;23.13;;;11.70;;
75297;SDS011;63896;45.990;18.688;2023-03-23T02:06:25;24.33;;;11.23;;
75297;SDS011;63896;45.990;18.688;2023-03-23T02:09:39;24.60;;;11.90;;
75297;SDS011;63896;45.990;18.688;2023-03-23T02:12:41;25.67;;;12.55;;
75297;SDS011;63896;45.990;18.688;2023-03-23T02:18:53;23.70;;;11.10;;
75297;SDS011;63896;45.990;18.688;2023-03-23T02:32:06;15.82;;;8.82;;
75297;SDS011;63896;45.990;18.688;2023-03-23T02:35:23;19.83;;;9.63;;
75297;SDS011;63896;45.990;18.688;2023-03-23T02:42:02;19.10;;;9.60;;
75297;SDS011;63896;45.990;18.688;2023-03-23T02:45:08;19.33;;;9.25;;
75297;SDS011;63896;45.990;18.688;2023-03-23T02:48:13;17.35;;;8.98;;
75297;SDS011;63896;45.990;18.688;2023-03-23T02:51:21;19.20;;;8.97;;
75297;SDS011;63896;45.990;18.688;2023-03-23T02:54:25;17.50;;;8.70;;
75297;SDS011;63896;45.990;18.688;2023-03-23T02:57:30;16.88;;;8.85;;
75297;SDS011;63896;45.990;18.688;2023-03-23T03:00:39;19.77;;;8.93;;
75297;SDS011;63896;45.990;18.688;2023-03-23T03:03:41;16.60;;;8.88;;
75297;SDS011;63896;45.990;18.688;2023-03-23T03:09:55;18.27;;;9.80;;
75297;SDS011;63896;45.990;18.688;2023-03-23T03:13:17;21.35;;;10.10;;
75297;SDS011;63896;45.990;18.688;2023-03-23T03:19:47;18.58;;;9.30;;
75297;SDS011;63896;45.990;18.688;2023-03-23T03:22:52;17.10;;;9.03;;
75297;SDS011;63896;45.990;18.688;2023-03-23T03:25:56;19.20;;;9.50;;
75297;SDS011;63896;45.990;18.688;2023-03-23T03:29:12;17.88;;;9.75;;
75297;SDS011;63896;45.990;18.688;2023-03-23T03:32:21;18.58;;;9.60;;
75297;SDS011;63896;45.990;18.688;2023-03-23T03:35:27;18.23;;;10.27;;
75297;SDS011;63896;45.990;18.688;2023-03-23T03:38:40;20.53;;;10.33;;
75297;SDS011;63896;45.990;18.688;2023-03-23T03:41:47;19.23;;;9.93;;
75297;SDS011;63896;45.990;18.688;2023-03-23T03:44:49;21.95;;;9.70;;
75297;SDS011;63896;45.990;18.688;2023-03-23T03:47:52;17.77;;;9.43;;
75297;SDS011;63896;45.990;18.688;2023-03-23T03:50:53;25.92;;;10.57;;
75297;SDS011;63896;45.990;18.688;2023-03-23T03:53:58;22.60;;;10.60;;
75297;SDS011;63896;45.990;18.688;2023-03-23T03:57:00;20.90;;;10.57;;
75297;SDS011;63896;45.990;18.688;2023-03-23T04:00:20;20.08;;;10.52;;
75297;SDS011;63896;45.990;18.688;2023-03-23T04:03:24;22.80;;;9.90;;
75297;SDS011;63896;45.990;18.688;2023-03-23T04:06:36;22.02;;;11.20;;
75297;SDS011;63896;45.990;18.688;2023-03-23T04:09:40;19.97;;;10.30;;
75297;SDS011;63896;45.990;18.688;2023-03-23T04:12:44;21.10;;;10.07;;
75297;SDS011;63896;45.990;18.688;2023-03-23T04:16:04;19.67;;;9.95;;
75297;SDS011;63896;45.990;18.688;2023-03-23T04:19:07;22.30;;;9.70;;
75297;SDS011;63896;45.990;18.688;2023-03-23T04:22:09;23.02;;;11.02;;
75297;SDS011;63896;45.990;18.688;2023-03-23T04:25:12;30.20;;;13.73;;
75297;SDS011;63896;45.990;18.688;2023-03-23T04:28:16;29.47;;;13.40;;
75297;SDS011;63896;45.990;18.688;2023-03-23T04:31:39;27.05;;;13.60;;
75297;SDS011;63896;45.990;18.688;2023-03-23T04:34:52;25.83;;;13.05;;
75297;SDS011;63896;45.990;18.688;2023-03-23T04:37:59;29.85;;;13.60;;
75297;SDS011;63896;45.990;18.688;2023-03-23T04:41:01;31.57;;;14.10;;
75297;SDS011;63896;45.990;18.688;2023-03-23T04:44:29;27.40;;;13.17;;
75297;SDS011;63896;45.990;18.688;2023-03-23T04:47:42;27.35;;;13.35;;
75297;SDS011;63896;45.990;18.688;2023-03-23T04:50:55;25.10;;;13.32;;
75297;SDS011;63896;45.990;18.688;2023-03-23T04:54:03;28.65;;;12.43;;
75297;SDS011;63896;45.990;18.688;2023-03-23T04:57:07;18.23;;;9.67;;
75297;SDS011;63896;45.990;18.688;2023-03-23T05:00:14;20.47;;;10.17;;
75297;SDS011;63896;45.990;18.688;2023-03-23T05:03:23;20.33;;;10.45;;
75297;SDS011;63896;45.990;18.688;2023-03-23T05:06:28;23.88;;;11.07;;
75297;SDS011;63896;45.990;18.688;2023-03-23T05:09:36;28.20;;;12.82;;
75297;SDS011;63896;45.990;18.688;2023-03-23T05:12:38;25.97;;;13.10;;
75297;SDS011;63896;45.990;18.688;2023-03-23T05:15:43;27.73;;;13.20;;
75297;SDS011;63896;45.990;18.688;2023-03-23T05:18:46;28.58;;;14.65;;
75297;SDS011;63896;45.990;18.688;2023-03-23T05:21:51;35.08;;;15.73;;
75297;SDS011;63896;45.990;18.688;2023-03-23T05:24:53;35.97;;;15.73;;
75297;SDS011;63896;45.990;18.688;2023-03-23T05:27:55;37.00;;;15.53;;
75297;SDS011;63896;45.990;18.688;2023-03-23T05:31:18;34.20;;;16.43;;
75297;SDS011;63896;45.990;18.688;2023-03-23T05:34:20;30.52;;;15.35;;
75297;SDS011;63896;45.990;18.688;2023-03-23T05:37:27;31.13;;;16.33;;
75297;SDS011;63896;45.990;18.688;2023-03-23T05:40:41;35.20;;;16.48;;
75297;SDS011;63896;45.990;18.688;2023-03-23T05:43:49;34.20;;;15.77;;
75297;SDS011;63896;45.990;18.688;2023-03-23T05:46:58;34.90;;;16.50;;
75297;SDS011;63896;45.990;18.688;2023-03-23T05:50:00;32.53;;;16.63;;
75297;SDS011;63896;45.990;18.688;2023-03-23T05:53:04;32.25;;;16.98;;
75297;SDS011;63896;45.990;18.688;2023-03-23T05:56:08;33.67;;;17.23;;
75297;SDS011;63896;45.990;18.688;2023-03-23T05:59:49;38.15;;;18.27;;
75297;SDS011;63896;45.990;18.688;2023-03-23T06:02:59;34.70;;;18.43;;
75297;SDS011;63896;45.990;18.688;2023-03-23T06:06:10;35.20;;;18.30;;
75297;SDS011;63896;45.990;18.688;2023-03-23T06:09:26;37.88;;;17.70;;
75297;SDS011;63896;45.990;18.688;2023-03-23T06:12:40;33.85;;;16.80;;
75297;SDS011;63896;45.990;18.688;2023-03-23T06:16:02;38.60;;;16.87;;
75297;SDS011;63896;45.990;18.688;2023-03-23T06:19:19;35.03;;;16.37;;
75297;SDS011;63896;45.990;18.688;2023-03-23T06:22:30;31.00;;;15.82;;
75297;SDS011;63896;45.990;18.688;2023-03-23T06:25:44;31.08;;;15.95;;
75297;SDS011;63896;45.990;18.688;2023-03-23T06:28:47;33.10;;;16.85;;
75297;SDS011;63896;45.990;18.688;2023-03-23T06:31:51;31.58;;;16.85;;
75297;SDS011;63896;45.990;18.688;2023-03-23T06:34:57;37.07;;;18.00;;
75297;SDS011;63896;45.990;18.688;2023-03-23T06:38:25;31.65;;;16.70;;
75297;SDS011;63896;45.990;18.688;2023-03-23T06:41:30;30.75;;;16.17;;
75297;SDS011;63896;45.990;18.688;2023-03-23T06:44:32;29.98;;;16.42;;
75297;SDS011;63896;45.990;18.688;2023-03-23T06:47:34;28.30;;;16.17;;
75297;SDS011;63896;45.990;18.688;2023-03-23T06:50:55;29.17;;;16.40;;
75297;SDS011;63896;45.990;18.688;2023-03-23T06:53:59;27.77;;;16.40;;
75297;SDS011;63896;45.990;18.688;2023-03-23T06:57:05;31.88;;;16.40;;
75297;SDS011;63896;45.990;18.688;2023-03-23T07:00:08;33.75;;;16.95;;
75297;SDS011;63896;45.990;18.688;2023-03-23T07:03:14;23.00;;;15.82;;
75297;SDS011;63896;45.990;18.688;2023-03-23T07:06:16;22.53;;;14.70;;
75297;SDS011;63896;45.990;18.688;2023-03-23T07:09:24;27.75;;;16.75;;
75297;SDS011;63896;45.990;18.688;2023-03-23T07:12:26;26.00;;;15.43;;
75297;SDS011;63896;45.990;18.688;2023-03-23T07:15:30;35.20;;;15.57;;
75297;SDS011;63896;45.990;18.688;2023-03-23T07:18:33;28.42;;;15.88;;
75297;SDS011;63896;45.990;18.688;2023-03-23T07:21:35;22.60;;;13.73;;
75297;SDS011;63896;45.990;18.688;2023-03-23T07:24:38;21.10;;;14.55;;
75297;SDS011;63896;45.990;18.688;2023-03-23T07:27:54;20.85;;;14.52;;
75297;SDS011;63896;45.990;18.688;2023-03-23T07:30:57;19.35;;;13.93;;
75297;SDS011;63896;45.990;18.688;2023-03-23T07:34:09;19.35;;;14.32;;
75297;SDS011;63896;45.990;18.688;2023-03-23T07:37:27;19.90;;;13.87;;
75297;SDS011;63896;45.990;18.688;2023-03-23T07:40:32;22.45;;;14.05;;
75297;SDS011;63896;45.990;18.688;2023-03-23T07:43:47;21.55;;;13.82;;
75297;SDS011;63896;45.990;18.688;2023-03-23T07:52:35;24.20;;;14.35;;
75297;SDS011;63896;45.990;18.688;2023-03-23T07:55:40;22.60;;;13.53;;
75297;SDS011;63896;45.990;18.688;2023-03-23T07:59:00;18.48;;;11.82;;
75297;SDS011;63896;45.990;18.688;2023-03-23T08:02:04;19.13;;;11.85;;
75297;SDS011;63896;45.990;18.688;2023-03-23T08:05:18;16.15;;;10.88;;
75297;SDS011;63896;45.990;18.688;2023-03-23T08:08:54;15.25;;;11.55;;
75297;SDS011;63896;45.990;18.688;2023-03-23T08:12:15;17.67;;;11.30;;
75297;SDS011;63896;45.990;18.688;2023-03-23T08:15:36;20.48;;;11.68;;
75297;SDS011;63896;45.990;18.688;2023-03-23T08:18:51;13.55;;;10.52;;
75297;SDS011;63896;45.990;18.688;2023-03-23T08:22:12;16.15;;;10.70;;
75297;SDS011;63896;45.990;18.688;2023-03-23T08:25:33;14.02;;;10.18;;
75297;SDS011;63896;45.990;18.688;2023-03-23T08:28:56;12.00;;;9.53;;
75297;SDS011;63896;45.990;18.688;2023-03-23T08:31:58;15.35;;;9.48;;
75297;SDS011;63896;45.990;18.688;2023-03-23T08:35:20;12.32;;;9.45;;
75297;SDS011;63896;45.990;18.688;2023-03-23T08:38:32;16.13;;;9.40;;
75297;SDS011;63896;45.990;18.688;2023-03-23T08:42:03;13.50;;;8.07;;
75297;SDS011;63896;45.990;18.688;2023-03-23T08:45:24;9.57;;;6.27;;
75297;SDS011;63896;45.990;18.688;2023-03-23T08:48:27;10.90;;;6.03;;
75297;SDS011;63896;45.990;18.688;2023-03-23T08:51:36;8.27;;;5.75;;
75297;SDS011;63896;45.990;18.688;2023-03-23T08:55:01;7.63;;;5.88;;
75297;SDS011;63896;45.990;18.688;2023-03-23T08:58:21;6.80;;;4.88;;
75297;SDS011;63896;45.990;18.688;2023-03-23T09:01:29;9.23;;;5.00;;
75297;SDS011;63896;45.990;18.688;2023-03-23T09:04:58;5.07;;;3.90;;
75297;SDS011;63896;45.990;18.688;2023-03-23T09:08:30;9.63;;;4.53;;
75297;SDS011;63896;45.990;18.688;2023-03-23T09:11:35;6.30;;;3.88;;
75297;SDS011;63896;45.990;18.688;2023-03-23T09:14:37;6.22;;;4.65;;
75297;SDS011;63896;45.990;18.688;2023-03-23T09:17:44;8.37;;;4.13;;
75297;SDS011;63896;45.990;18.688;2023-03-23T09:20:49;5.63;;;3.88;;
75297;SDS011;63896;45.990;18.688;2023-03-23T09:23:52;10.95;;;3.65;;
75297;SDS011;63896;45.990;18.688;2023-03-23T09:26:54;4.45;;;3.65;;
75297;SDS011;63896;45.990;18.688;2023-03-23T09:29:56;4.60;;;3.35;;
75297;SDS011;63896;45.990;18.688;2023-03-23T09:32:59;6.77;;;3.10;;
75297;SDS011;63896;45.990;18.688;2023-03-23T09:36:05;5.63;;;3.70;;
75297;SDS011;63896;45.990;18.688;2023-03-23T09:39:10;5.32;;;2.55;;
75297;SDS011;63896;45.990;18.688;2023-03-23T09:45:31;3.47;;;2.70;;
75297;SDS011;63896;45.990;18.688;2023-03-23T09:52:52;3.67;;;2.72;;
75297;SDS011;63896;45.990;18.688;2023-03-23T09:55:59;3.20;;;2.83;;
75297;SDS011;63896;45.990;18.688;2023-03-23T09:59:05;3.78;;;3.30;;
75297;SDS011;63896;45.990;18.688;2023-03-23T10:02:16;5.05;;;3.40;;
75297;SDS011;63896;45.990;18.688;2023-03-23T10:05:39;4.03;;;2.90;;
75297;SDS011;63896;45.990;18.688;2023-03-23T10:08:48;6.82;;;2.90;;
75297;SDS011;63896;45.990;18.688;2023-03-23T10:15:35;4.95;;;3.20;;
75297;SDS011;63896;45.990;18.688;2023-03-23T10:18:41;6.07;;;3.50;;
75297;SDS011;63896;45.990;18.688;2023-03-23T10:21:54;4.83;;;3.17;;
75297;SDS011;63896;45.990;18.688;2023-03-23T10:25:08;4.40;;;3.15;;
75297;SDS011;63896;45.990;18.688;2023-03-23T10:28:18;4.35;;;2.92;;
75297;SDS011;63896;45.990;18.688;2023-03-23T10:31:27;3.47;;;2.67;;
75297;SDS011;63896;45.990;18.688;2023-03-23T10:38:06;2.60;;;2.40;;
75297;SDS011;63896;45.990;18.688;2023-03-23T10:41:18;3.70;;;3.10;;
75297;SDS011;63896;45.990;18.688;2023-03-23T10:44:23;3.45;;;2.90;;
75297;SDS011;63896;45.990;18.688;2023-03-23T10:47:28;3.35;;;3.05;;
75297;SDS011;63896;45.990;18.688;2023-03-23T10:50:34;3.50;;;2.95;;
75297;SDS011;63896;45.990;18.688;2023-03-23T10:53:51;4.63;;;3.43;;
75297;SDS011;63896;45.990;18.688;2023-03-23T10:56:58;3.03;;;2.50;;
75297;SDS011;63896;45.990;18.688;2023-03-23T11:00:03;4.20;;;2.80;;
75297;SDS011;63896;45.990;18.688;2023-03-23T11:06:23;5.28;;;2.95;;
75297;SDS011;63896;45.990;18.688;2023-03-23T11:09:38;5.07;;;3.33;;
75297;SDS011;63896;45.990;18.688;2023-03-23T11:12:52;9.48;;;5.10;;
75297;SDS011;63896;45.990;18.688;2023-03-23T11:15:59;9.00;;;3.50;;
75297;SDS011;63896;45.990;18.688;2023-03-23T11:19:14;4.05;;;3.38;;
75297;SDS011;63896;45.990;18.688;2023-03-23T11:22:27;8.27;;;4.30;;
75297;SDS011;63896;45.990;18.688;2023-03-23T11:25:49;7.83;;;3.70;;
75297;SDS011;63896;45.990;18.688;2023-03-23T11:28:58;4.90;;;3.42;;
75297;SDS011;63896;45.990;18.688;2023-03-23T11:32:14;7.22;;;3.17;;
75297;SDS011;63896;45.990;18.688;2023-03-23T11:35:19;3.80;;;3.17;;
75297;SDS011;63896;45.990;18.688;2023-03-23T11:42:13;6.93;;;4.30;;
75297;SDS011;63896;45.990;18.688;2023-03-23T11:45:35;7.70;;;3.13;;
75297;SDS011;63896;45.990;18.688;2023-03-23T11:49:00;4.43;;;3.40;;
75297;SDS011;63896;45.990;18.688;2023-03-23T11:52:51;6.72;;;4.18;;
75297;SDS011;63896;45.990;18.688;2023-03-23T11:59:25;8.23;;;3.47;;
75297;SDS011;63896;45.990;18.688;2023-03-23T12:02:45;6.20;;;2.75;;
75297;SDS011;63896;45.990;18.688;2023-03-23T12:30:21;5.63;;;2.70;;
75297;SDS011;63896;45.990;18.688;2023-03-23T12:33:37;4.70;;;2.87;;
75297;SDS011;63896;45.990;18.688;2023-03-23T12:43:49;5.45;;;2.70;;
75297;SDS011;63896;45.990;18.688;2023-03-23T12:47:32;3.92;;;2.60;;
75297;SDS011;63896;45.990;18.688;2023-03-23T12:55:23;2.95;;;2.40;;
75297;SDS011;63896;45.990;18.688;2023-03-23T13:04:16;4.15;;;2.80;;
75297;SDS011;63896;45.990;18.688;2023-03-23T13:08:18;3.53;;;2.30;;
75297;SDS011;63896;45.990;18.688;2023-03-23T13:11:51;3.17;;;2.33;;
75297;SDS011;63896;45.990;18.688;2023-03-23T13:22:06;3.03;;;1.92;;
75297;SDS011;63896;45.990;18.688;2023-03-23T13:25:19;3.75;;;1.92;;
75297;SDS011;63896;45.990;18.688;2023-03-23T13:32:06;2.80;;;2.15;;
75297;SDS011;63896;45.990;18.688;2023-03-23T13:35:13;3.60;;;2.30;;
75297;SDS011;63896;45.990;18.688;2023-03-23T13:38:20;1.98;;;1.73;;
75297;SDS011;63896;45.990;18.688;2023-03-23T13:41:25;2.88;;;1.85;;
75297;SDS011;63896;45.990;18.688;2023-03-23T13:44:40;5.17;;;2.30;;
75297;SDS011;63896;45.990;18.688;2023-03-23T13:54:43;2.83;;;1.60;;
75297;SDS011;63896;45.990;18.688;2023-03-23T14:01:15;2.60;;;1.80;;
75297;SDS011;63896;45.990;18.688;2023-03-23T14:04:19;4.55;;;2.38;;
75297;SDS011;63896;45.990;18.688;2023-03-23T14:07:22;4.10;;;2.10;;
75297;SDS011;63896;45.990;18.688;2023-03-23T14:10:31;2.85;;;1.90;;
75297;SDS011;63896;45.990;18.688;2023-03-23T14:14:05;4.55;;;2.65;;
75297;SDS011;63896;45.990;18.688;2023-03-23T14:17:16;4.77;;;2.60;;
75297;SDS011;63896;45.990;18.688;2023-03-23T14:20:23;4.07;;;2.30;;
75297;SDS011;63896;45.990;18.688;2023-03-23T14:23:28;2.85;;;2.17;;
75297;SDS011;63896;45.990;18.688;2023-03-23T14:30:13;2.75;;;1.83;;
75297;SDS011;63896;45.990;18.688;2023-03-23T14:33:30;6.57;;;2.90;;
75297;SDS011;63896;45.990;18.688;2023-03-23T14:36:33;5.32;;;3.10;;
75297;SDS011;63896;45.990;18.688;2023-03-23T14:39:37;4.28;;;1.92;;
75297;SDS011;63896;45.990;18.688;2023-03-23T14:42:39;4.85;;;1.83;;
75297;SDS011;63896;45.990;18.688;2023-03-23T14:45:41;3.22;;;2.05;;
75297;SDS011;63896;45.990;18.688;2023-03-23T14:48:43;5.67;;;2.17;;
75297;SDS011;63896;45.990;18.688;2023-03-23T14:51:46;2.75;;;2.38;;
75297;SDS011;63896;45.990;18.688;2023-03-23T14:54:53;7.75;;;3.75;;
75297;SDS011;63896;45.990;18.688;2023-03-23T14:57:55;9.00;;;4.70;;
75297;SDS011;63896;45.990;18.688;2023-03-23T15:01:09;6.15;;;3.17;;
75297;SDS011;63896;45.990;18.688;2023-03-23T15:04:21;3.23;;;1.87;;
75297;SDS011;63896;45.990;18.688;2023-03-23T15:07:31;5.80;;;3.50;;
75297;SDS011;63896;45.990;18.688;2023-03-23T15:10:36;8.52;;;5.22;;
75297;SDS011;63896;45.990;18.688;2023-03-23T15:13:41;15.52;;;7.95;;
75297;SDS011;63896;45.990;18.688;2023-03-23T15:16:46;30.00;;;13.05;;
75297;SDS011;63896;45.990;18.688;2023-03-23T15:19:49;19.27;;;8.17;;
75297;SDS011;63896;45.990;18.688;2023-03-23T15:22:52;28.13;;;11.52;;
75297;SDS011;63896;45.990;18.688;2023-03-23T15:25:56;29.13;;;11.18;;
75297;SDS011;63896;45.990;18.688;2023-03-23T15:29:03;12.27;;;6.30;;
75297;SDS011;63896;45.990;18.688;2023-03-23T15:32:09;8.35;;;4.10;;
75297;SDS011;63896;45.990;18.688;2023-03-23T15:35:13;9.33;;;4.67;;
75297;SDS011;63896;45.990;18.688;2023-03-23T15:38:19;4.20;;;3.20;;
75297;SDS011;63896;45.990;18.688;2023-03-23T15:41:24;6.95;;;3.00;;
75297;SDS011;63896;45.990;18.688;2023-03-23T15:44:32;15.27;;;3.88;;
75297;SDS011;63896;45.990;18.688;2023-03-23T15:50:42;10.57;;;4.37;;
75297;SDS011;63896;45.990;18.688;2023-03-23T15:53:49;9.57;;;4.15;;
75297;SDS011;63896;45.990;18.688;2023-03-23T15:56:52;9.25;;;4.40;;
75297;SDS011;63896;45.990;18.688;2023-03-23T15:59:54;16.50;;;7.72;;
75297;SDS011;63896;45.990;18.688;2023-03-23T16:03:00;22.20;;;10.30;;
75297;SDS011;63896;45.990;18.688;2023-03-23T16:06:09;19.63;;;10.50;;
75297;SDS011;63896;45.990;18.688;2023-03-23T16:09:26;17.27;;;8.20;;
75297;SDS011;63896;45.990;18.688;2023-03-23T16:12:29;26.98;;;10.43;;
75297;SDS011;63896;45.990;18.688;2023-03-23T16:15:32;40.53;;;13.55;;
75297;SDS011;63896;45.990;18.688;2023-03-23T16:18:35;39.35;;;13.63;;
75297;SDS011;63896;45.990;18.688;2023-03-23T16:21:38;61.43;;;18.87;;
75297;SDS011;63896;45.990;18.688;2023-03-23T16:24:41;37.05;;;13.40;;
75297;SDS011;63896;45.990;18.688;2023-03-23T16:27:44;30.95;;;10.75;;
75297;SDS011;63896;45.990;18.688;2023-03-23T16:30:53;24.23;;;9.43;;
75297;SDS011;63896;45.990;18.688;2023-03-23T16:33:56;25.85;;;11.85;;
75297;SDS011;63896;45.990;18.688;2023-03-23T16:37:00;23.23;;;10.43;;
75297;SDS011;63896;45.990;18.688;2023-03-23T16:40:04;30.52;;;9.98;;
75297;SDS011;63896;45.990;18.688;2023-03-23T16:43:09;22.75;;;10.75;;
75297;SDS011;63896;45.990;18.688;2023-03-23T16:46:13;32.70;;;17.10;;
75297;SDS011;63896;45.990;18.688;2023-03-23T16:49:16;25.92;;;13.63;;
75297;SDS011;63896;45.990;18.688;2023-03-23T16:52:19;31.20;;;14.53;;
75297;SDS011;63896;45.990;18.688;2023-03-23T16:55:22;25.27;;;11.43;;
75297;SDS011;63896;45.990;18.688;2023-03-23T16:58:27;28.90;;;12.15;;
75297;SDS011;63896;45.990;18.688;2023-03-23T17:01:30;39.20;;;18.33;;
75297;SDS011;63896;45.990;18.688;2023-03-23T17:04:33;31.08;;;15.88;;
75297;SDS011;63896;45.990;18.688;2023-03-23T17:07:37;37.77;;;17.03;;
75297;SDS011;63896;45.990;18.688;2023-03-23T17:10:41;44.50;;;19.70;;
75297;SDS011;63896;45.990;18.688;2023-03-23T17:13:45;44.55;;;22.20;;
75297;SDS011;63896;45.990;18.688;2023-03-23T17:16:48;56.83;;;24.70;;
75297;SDS011;63896;45.990;18.688;2023-03-23T17:19:51;48.17;;;21.35;;
75297;SDS011;63896;45.990;18.688;2023-03-23T17:22:54;24.03;;;13.23;;
75297;SDS011;63896;45.990;18.688;2023-03-23T17:25:57;35.90;;;16.15;;
75297;SDS011;63896;45.990;18.688;2023-03-23T17:29:00;28.40;;;14.32;;
75297;SDS011;63896;45.990;18.688;2023-03-23T17:32:03;18.15;;;10.52;;
75297;SDS011;63896;45.990;18.688;2023-03-23T17:35:07;27.00;;;13.00;;
75297;SDS011;63896;45.990;18.688;2023-03-23T17:38:10;47.33;;;23.17;;
75297;SDS011;63896;45.990;18.688;2023-03-23T17:41:13;50.25;;;25.52;;
75297;SDS011;63896;45.990;18.688;2023-03-23T17:44:16;49.08;;;26.20;;
75297;SDS011;63896;45.990;18.688;2023-03-23T17:47:19;72.85;;;37.72;;
75297;SDS011;63896;45.990;18.688;2023-03-23T17:50:23;65.05;;;33.05;;
75297;SDS011;63896;45.990;18.688;2023-03-23T17:53:25;36.00;;;22.33;;
75297;SDS011;63896;45.990;18.688;2023-03-23T17:56:28;35.25;;;19.17;;
75297;SDS011;63896;45.990;18.688;2023-03-23T17:59:32;29.38;;;16.98;;
75297;SDS011;63896;45.990;18.688;2023-03-23T18:02:38;47.95;;;29.17;;
75297;SDS011;63896;45.990;18.688;2023-03-23T18:05:44;52.47;;;31.65;;
75297;SDS011;63896;45.990;18.688;2023-03-23T18:08:53;47.47;;;30.33;;
75297;SDS011;63896;45.990;18.688;2023-03-23T18:11:56;45.83;;;30.33;;
75297;SDS011;63896;45.990;18.688;2023-03-23T18:14:59;65.75;;;36.65;;
75297;SDS011;63896;45.990;18.688;2023-03-23T18:18:05;80.97;;;40.50;;
75297;SDS011;63896;45.990;18.688;2023-03-23T18:21:08;74.00;;;40.15;;
75297;SDS011;63896;45.990;18.688;2023-03-23T18:24:12;79.77;;;39.20;;
75297;SDS011;63896;45.990;18.688;2023-03-23T18:27:15;72.70;;;39.97;;
75297;SDS011;63896;45.990;18.688;2023-03-23T18:30:19;82.65;;;43.83;;
75297;SDS011;63896;45.990;18.688;2023-03-23T18:33:22;114.88;;;54.17;;
75297;SDS011;63896;45.990;18.688;2023-03-23T18:36:27;126.40;;;60.13;;
75297;SDS011;63896;45.990;18.688;2023-03-23T18:39:33;119.57;;;56.57;;
75297;SDS011;63896;45.990;18.688;2023-03-23T18:42:37;116.13;;;55.13;;
75297;SDS011;63896;45.990;18.688;2023-03-23T18:45:41;111.55;;;51.58;;
75297;SDS011;63896;45.990;18.688;2023-03-23T18:48:50;111.32;;;51.55;;
75297;SDS011;63896;45.990;18.688;2023-03-23T18:51:53;98.38;;;49.05;;
75297;SDS011;63896;45.990;18.688;2023-03-23T18:54:56;94.27;;;46.33;;
75297;SDS011;63896;45.990;18.688;2023-03-23T18:58:00;84.22;;;45.53;;
75297;SDS011;63896;45.990;18.688;2023-03-23T19:01:04;80.55;;;43.33;;
75297;SDS011;63896;45.990;18.688;2023-03-23T19:04:10;98.85;;;50.28;;
75297;SDS011;63896;45.990;18.688;2023-03-23T19:07:15;110.47;;;57.13;;
75297;SDS011;63896;45.990;18.688;2023-03-23T19:10:20;105.47;;;55.00;;
75297;SDS011;63896;45.990;18.688;2023-03-23T19:13:23;109.70;;;54.50;;
75297;SDS011;63896;45.990;18.688;2023-03-23T19:16:26;114.13;;;56.25;;
75297;SDS011;63896;45.990;18.688;2023-03-23T19:19:31;111.32;;;55.83;;
75297;SDS011;63896;45.990;18.688;2023-03-23T19:22:36;121.82;;;59.72;;
75297;SDS011;63896;45.990;18.688;2023-03-23T19:25:39;101.77;;;50.77;;
75297;SDS011;63896;45.990;18.688;2023-03-23T19:28:43;89.65;;;45.58;;
75297;SDS011;63896;45.990;18.688;2023-03-23T19:32:06;95.38;;;46.17;;
75297;SDS011;63896;45.990;18.688;2023-03-23T19:35:10;83.70;;;42.78;;
75297;SDS011;63896;45.990;18.688;2023-03-23T19:38:14;87.20;;;44.30;;
75297;SDS011;63896;45.990;18.688;2023-03-23T19:41:19;88.63;;;43.17;;
75297;SDS011;63896;45.990;18.688;2023-03-23T19:44:23;86.60;;;43.85;;
75297;SDS011;63896;45.990;18.688;2023-03-23T19:47:27;88.57;;;42.90;;
75297;SDS011;63896;45.990;18.688;2023-03-23T19:50:31;87.38;;;40.72;;
75297;SDS011;63896;45.990;18.688;2023-03-23T19:53:36;91.25;;;41.72;;
75297;SDS011;63896;45.990;18.688;2023-03-23T19:56:41;94.93;;;41.43;;
75297;SDS011;63896;45.990;18.688;2023-03-23T19:59:45;95.05;;;42.90;;
75297;SDS011;63896;45.990;18.688;2023-03-23T20:02:49;93.72;;;41.63;;
75297;SDS011;63896;45.990;18.688;2023-03-23T20:05:57;85.60;;;38.40;;
75297;SDS011;63896;45.990;18.688;2023-03-23T20:09:02;85.53;;;37.22;;
75297;SDS011;63896;45.990;18.688;2023-03-23T20:12:07;80.00;;;35.13;;
75297;SDS011;63896;45.990;18.688;2023-03-23T20:15:11;78.63;;;36.75;;
75297;SDS011;63896;45.990;18.688;2023-03-23T20:18:14;62.17;;;32.22;;
75297;SDS011;63896;45.990;18.688;2023-03-23T20:21:20;55.95;;;29.40;;